sensor_id;sensor_type;location;lat;lon;timestamp;pressure;altitude;pressure_sealevel;temperature;humidity
30714;BME280;17465;47.934;33.430;2023-08-21T00:02:26;57547.54;;;-140.43;72.65
30714;BME280;17465;47.934;33.430;2023-08-21T00:04:56;57569.79;;;-140.43;72.40
30714;BME280;17465;47.934;33.430;2023-08-21T00:07:27;57569.79;;;-140.43;72.40
30714;BME280;17465;47.934;33.430;2023-08-21T00:09:57;57544.37;;;-140.43;72.58
30714;BME280;17465;47.934;33.430;2023-08-21T00:12:30;57566.61;;;-140.43;72.80
30714;BME280;17465;47.934;33.430;2023-08-21T00:15:00;57556.02;;;-140.43;70.42
30714;BME280;17465;47.934;33.430;2023-08-21T00:17:31;57556.02;;;-140.43;70.42
30714;BME280;17465;47.934;33.430;2023-08-21T00:20:01;57579.32;;;-140.43;70.70
30714;BME280;17465;47.934;33.430;2023-08-21T00:22:32;57547.54;;;-140.43;72.33
30714;BME280;17465;47.934;33.430;2023-08-21T00:25:07;57552.84;;;-140.43;70.75
30714;BME280;17465;47.934;33.430;2023-08-21T00:27:43;57529.54;;;-140.43;71.06
30714;BME280;17465;47.934;33.430;2023-08-21T00:30:18;57529.54;;;-140.43;71.06
30714;BME280;17465;47.934;33.430;2023-08-21T00:32:48;57539.07;;;-140.43;71.58
30714;BME280;17465;47.934;33.430;2023-08-21T00:35:25;57529.54;;;-140.43;71.09
30714;BME280;17465;47.934;33.430;2023-08-21T00:37:56;57541.19;;;-140.43;70.37
30714;BME280;17465;47.934;33.430;2023-08-21T00:40:30;57562.37;;;-140.43;71.05
30714;BME280;17465;47.934;33.430;2023-08-21T00:43:01;57536.95;;;-140.43;69.17
30714;BME280;17465;47.934;33.430;2023-08-21T00:45:31;57535.89;;;-140.43;68.25
30714;BME280;17465;47.934;33.430;2023-08-21T00:48:02;57554.96;;;-140.43;66.20
30714;BME280;17465;47.934;33.430;2023-08-21T00:50:35;57554.96;;;-140.43;66.20
30714;BME280;17465;47.934;33.430;2023-08-21T00:53:06;57543.31;;;-140.43;67.82
30714;BME280;17465;47.934;33.430;2023-08-21T00:55:37;57528.48;;;-140.43;67.31
30714;BME280;17465;47.934;33.430;2023-08-21T00:58:10;57539.07;;;-140.43;67.12
30714;BME280;17465;47.934;33.430;2023-08-21T01:00:45;57527.42;;;-140.43;64.90
30714;BME280;17465;47.934;33.430;2023-08-21T01:03:22;57542.25;;;-140.43;64.79
30714;BME280;17465;47.934;33.430;2023-08-21T01:05:50;57562.37;;;-140.43;65.26
30714;BME280;17465;47.934;33.430;2023-08-21T01:11:18;57548.61;;;-140.43;63.29
30714;BME280;17465;47.934;33.430;2023-08-21T01:13:55;57548.61;;;-140.43;62.55
30714;BME280;17465;47.934;33.430;2023-08-21T01:16:28;57548.61;;;-140.43;62.55
30714;BME280;17465;47.934;33.430;2023-08-21T01:19:00;57552.84;;;-140.43;61.96
30714;BME280;17465;47.934;33.430;2023-08-21T01:21:31;57567.67;;;-140.43;63.36
30714;BME280;17465;47.934;33.430;2023-08-21T01:24:02;57550.72;;;-140.43;62.29
30714;BME280;17465;47.934;33.430;2023-08-21T01:26:32;57553.90;;;-140.43;62.13
30714;BME280;17465;47.934;33.430;2023-08-21T01:29:05;57531.66;;;-140.43;66.09
30714;BME280;17465;47.934;33.430;2023-08-21T01:31:38;57554.96;;;-140.43;65.10
30714;BME280;17465;47.934;33.430;2023-08-21T01:34:11;57561.31;;;-140.43;64.83
30714;BME280;17465;47.934;33.430;2023-08-21T01:36:43;57539.07;;;-140.43;66.08
30714;BME280;17465;47.934;33.430;2023-08-21T01:39:15;57557.08;;;-140.43;66.96
30714;BME280;17465;47.934;33.430;2023-08-21T01:41:46;57548.61;;;-140.43;65.21
30714;BME280;17465;47.934;33.430;2023-08-21T01:44:16;57548.61;;;-140.43;65.21
30714;BME280;17465;47.934;33.430;2023-08-21T01:46:46;57549.66;;;-140.43;66.03
30714;BME280;17465;47.934;33.430;2023-08-21T01:49:17;57547.54;;;-140.43;66.26
30714;BME280;17465;47.934;33.430;2023-08-21T01:51:47;57526.36;;;-140.43;64.86
30714;BME280;17465;47.934;33.430;2023-08-21T01:54:18;57547.54;;;-140.43;65.17
30714;BME280;17465;47.934;33.430;2023-08-21T01:56:54;57561.31;;;-140.43;66.42
30714;BME280;17465;47.934;33.430;2023-08-21T02:02:15;57527.42;;;-140.43;65.91
30714;BME280;17465;47.934;33.430;2023-08-21T02:04:45;57544.37;;;-140.43;66.76
30714;BME280;17465;47.934;33.430;2023-08-21T02:07:16;57544.37;;;-140.43;66.76
30714;BME280;17465;47.934;33.430;2023-08-21T02:09:46;57517.89;;;-140.43;65.13
30714;BME280;17465;47.934;33.430;2023-08-21T02:12:17;57523.18;;;-140.43;66.37
30714;BME280;17465;47.934;33.430;2023-08-21T02:14:47;57540.13;;;-140.43;68.36
30714;BME280;17465;47.934;33.430;2023-08-21T02:17:18;57540.13;;;-140.43;68.36
30714;BME280;17465;47.934;33.430;2023-08-21T02:19:48;57516.83;;;-140.43;65.24
30714;BME280;17465;47.934;33.430;2023-08-21T02:22:18;57516.83;;;-140.43;65.24
30714;BME280;17465;47.934;33.430;2023-08-21T02:24:49;57508.36;;;-140.43;63.68
30714;BME280;17465;47.934;33.430;2023-08-21T02:27:19;57508.36;;;-140.43;63.68
30714;BME280;17465;47.934;33.430;2023-08-21T02:29:50;57522.12;;;-140.43;66.01
30714;BME280;17465;47.934;33.430;2023-08-21T02:32:20;57522.12;;;-140.43;66.01
30714;BME280;17465;47.934;33.430;2023-08-21T02:34:50;57540.13;;;-140.43;66.03
30714;BME280;17465;47.934;33.430;2023-08-21T02:37:21;57540.13;;;-140.43;66.03
30714;BME280;17465;47.934;33.430;2023-08-21T02:39:51;57558.13;;;-140.43;67.29
30714;BME280;17465;47.934;33.430;2023-08-21T02:42:21;57545.43;;;-140.43;66.73
30714;BME280;17465;47.934;33.430;2023-08-21T02:44:52;57536.95;;;-140.43;67.67
30714;BME280;17465;47.934;33.430;2023-08-21T02:47:29;57562.37;;;-140.43;66.34
30714;BME280;17465;47.934;33.430;2023-08-21T02:50:01;57523.18;;;-140.43;67.82
30714;BME280;17465;47.934;33.430;2023-08-21T02:52:33;57545.43;;;-140.43;68.60
30714;BME280;17465;47.934;33.430;2023-08-21T02:55:05;57525.30;;;-140.43;67.03
30714;BME280;17465;47.934;33.430;2023-08-21T02:57:35;57526.36;;;-140.43;65.76
30714;BME280;17465;47.934;33.430;2023-08-21T03:00:07;57530.60;;;-140.43;68.11
30714;BME280;17465;47.934;33.430;2023-08-21T03:02:38;57530.60;;;-140.43;68.11
30714;BME280;17465;47.934;33.430;2023-08-21T03:05:09;57513.65;;;-140.43;72.28
30714;BME280;17465;47.934;33.430;2023-08-21T03:07:40;57503.06;;;-140.43;72.05
30714;BME280;17465;47.934;33.430;2023-08-21T03:10:10;57506.24;;;-140.43;70.92
30714;BME280;17465;47.934;33.430;2023-08-21T03:12:41;57511.54;;;-140.43;70.77
30714;BME280;17465;47.934;33.430;2023-08-21T03:15:11;57507.30;;;-140.43;71.67
30714;BME280;17465;47.934;33.430;2023-08-21T03:17:42;57514.71;;;-140.43;72.72
30714;BME280;17465;47.934;33.430;2023-08-21T03:20:12;57502.00;;;-140.43;73.76
30714;BME280;17465;47.934;33.430;2023-08-21T03:22:42;57486.12;;;-140.43;75.72
30714;BME280;17465;47.934;33.430;2023-08-21T03:25:13;57487.18;;;-140.43;75.11
30714;BME280;17465;47.934;33.430;2023-08-21T03:27:43;57511.54;;;-140.43;75.25
30714;BME280;17465;47.934;33.430;2023-08-21T03:30:14;57510.48;;;-140.43;75.55
30714;BME280;17465;47.934;33.430;2023-08-21T03:32:44;57510.48;;;-140.43;73.65
30714;BME280;17465;47.934;33.430;2023-08-21T03:35:15;57526.36;;;-140.43;73.33
30714;BME280;17465;47.934;33.430;2023-08-21T03:37:45;57543.31;;;-140.43;72.65
30714;BME280;17465;47.934;33.430;2023-08-21T03:40:16;57543.31;;;-140.43;72.65
30714;BME280;17465;47.934;33.430;2023-08-21T03:42:46;57540.13;;;-140.43;73.11
30714;BME280;17465;47.934;33.430;2023-08-21T03:45:17;57526.36;;;-140.43;73.29
30714;BME280;17465;47.934;33.430;2023-08-21T03:47:47;57524.25;;;-140.43;73.63
30714;BME280;17465;47.934;33.430;2023-08-21T03:50:18;57524.25;;;-140.43;73.63
30714;BME280;17465;47.934;33.430;2023-08-21T03:52:48;57527.42;;;-140.43;69.39
30714;BME280;17465;47.934;33.430;2023-08-21T03:55:19;57549.66;;;-140.43;70.50
30714;BME280;17465;47.934;33.430;2023-08-21T03:57:49;57549.66;;;-140.43;70.50
30714;BME280;17465;47.934;33.430;2023-08-21T04:00:20;57517.89;;;-140.43;73.46
30714;BME280;17465;47.934;33.430;2023-08-21T04:02:50;57517.89;;;-140.43;73.46
30714;BME280;17465;47.934;33.430;2023-08-21T04:05:23;57562.37;;;-140.43;71.67
30714;BME280;17465;47.934;33.430;2023-08-21T04:07:54;57541.19;;;-140.43;71.66
30714;BME280;17465;47.934;33.430;2023-08-21T04:10:25;57548.61;;;-140.43;72.26
30714;BME280;17465;47.934;33.430;2023-08-21T04:12:55;57548.61;;;-140.43;72.26
30714;BME280;17465;47.934;33.430;2023-08-21T04:15:38;57565.55;;;-140.43;68.96
30714;BME280;17465;47.934;33.430;2023-08-21T04:18:08;57572.96;;;-140.43;68.60
30714;BME280;17465;47.934;33.430;2023-08-21T04:20:39;57572.96;;;-140.43;68.60
30714;BME280;17465;47.934;33.430;2023-08-21T04:23:09;57558.13;;;-140.43;69.15
30714;BME280;17465;47.934;33.430;2023-08-21T04:25:39;57587.79;;;-140.43;68.86
30714;BME280;17465;47.934;33.430;2023-08-21T04:28:10;57593.09;;;-140.43;68.90
30714;BME280;17465;47.934;33.430;2023-08-21T04:30:41;57593.09;;;-140.43;68.90
30714;BME280;17465;47.934;33.430;2023-08-21T04:33:11;57588.85;;;-140.43;65.66
30714;BME280;17465;47.934;33.430;2023-08-21T04:35:42;57589.91;;;-140.43;68.44
30714;BME280;17465;47.934;33.430;2023-08-21T04:38:12;57602.62;;;-140.43;67.26
30714;BME280;17465;47.934;33.430;2023-08-21T04:40:42;57597.32;;;-140.43;66.59
30714;BME280;17465;47.934;33.430;2023-08-21T04:43:13;57597.32;;;-140.43;66.59
30714;BME280;17465;47.934;33.430;2023-08-21T04:45:48;57617.45;;;-140.43;68.84
30714;BME280;17465;47.934;33.430;2023-08-21T04:48:18;57612.15;;;-140.43;67.87
30714;BME280;17465;47.934;33.430;2023-08-21T04:50:49;57630.16;;;-140.43;66.04
30714;BME280;17465;47.934;33.430;2023-08-21T04:53:19;57630.16;;;-140.43;66.04
30714;BME280;17465;47.934;33.430;2023-08-21T04:55:50;57630.16;;;-140.43;66.47
30714;BME280;17465;47.934;33.430;2023-08-21T04:58:20;57659.81;;;-140.43;65.94
30714;BME280;17465;47.934;33.430;2023-08-21T05:00:51;57659.81;;;-140.43;65.94
30714;BME280;17465;47.934;33.430;2023-08-21T05:03:21;57664.05;;;-140.43;64.33
30714;BME280;17465;47.934;33.430;2023-08-21T05:05:54;57650.28;;;-140.43;64.17
30714;BME280;17465;47.934;33.430;2023-08-21T05:08:25;57667.23;;;-140.43;65.45
30714;BME280;17465;47.934;33.430;2023-08-21T05:11:02;57665.11;;;-140.43;65.80
30714;BME280;17465;47.934;33.430;2023-08-21T05:13:28;57676.76;;;-140.43;64.57
30714;BME280;17465;47.934;33.430;2023-08-21T05:15:59;57699.00;;;-140.43;64.37
30714;BME280;17465;47.934;33.430;2023-08-21T05:18:30;57717.01;;;-140.43;65.84
30714;BME280;17465;47.934;33.430;2023-08-21T05:21:00;57739.25;;;-140.43;64.99
30714;BME280;17465;47.934;33.430;2023-08-21T05:23:31;57723.36;;;-140.43;64.61
30714;BME280;17465;47.934;33.430;2023-08-21T05:26:01;57723.36;;;-140.43;64.61
30714;BME280;17465;47.934;33.430;2023-08-21T05:28:32;57737.13;;;-140.43;63.98
30714;BME280;17465;47.934;33.430;2023-08-21T05:31:02;57740.31;;;-140.43;64.99
30714;BME280;17465;47.934;33.430;2023-08-21T05:33:33;57730.78;;;-140.43;64.44
30714;BME280;17465;47.934;33.430;2023-08-21T05:36:07;57774.20;;;-140.43;62.00
30714;BME280;17465;47.934;33.430;2023-08-21T05:38:35;57776.32;;;-140.43;62.58
30714;BME280;17465;47.934;33.430;2023-08-21T05:41:06;57772.09;;;-140.43;59.99
30714;BME280;17465;47.934;33.430;2023-08-21T05:43:36;57810.21;;;-140.43;58.90
30714;BME280;17465;47.934;33.430;2023-08-21T05:46:06;57805.98;;;-140.43;59.13
30714;BME280;17465;47.934;33.430;2023-08-21T05:48:37;57827.16;;;-140.43;59.36
30714;BME280;17465;47.934;33.430;2023-08-21T05:51:07;57862.12;;;-140.43;59.22
30714;BME280;17465;47.934;33.430;2023-08-21T05:53:37;57862.12;;;-140.43;59.22
30714;BME280;17465;47.934;33.430;2023-08-21T05:56:08;57871.65;;;-140.43;57.50
30714;BME280;17465;47.934;33.430;2023-08-21T05:58:38;57884.36;;;-140.43;56.15
30714;BME280;17465;47.934;33.430;2023-08-21T06:01:10;57882.25;;;-140.43;57.20
30714;BME280;17465;47.934;33.430;2023-08-21T06:03:41;57932.03;;;-140.43;54.75
30714;BME280;17465;47.934;33.430;2023-08-21T06:06:12;57932.03;;;-140.43;54.75
30714;BME280;17465;47.934;33.430;2023-08-21T06:08:42;57986.05;;;-140.43;52.63
30714;BME280;17465;47.934;33.430;2023-08-21T06:11:12;58008.30;;;-140.43;50.51
30714;BME280;17465;47.934;33.430;2023-08-21T06:13:43;58084.56;;;-140.43;48.18
30714;BME280;17465;47.934;33.430;2023-08-21T06:16:13;58084.56;;;-140.43;48.18
30714;BME280;17465;47.934;33.430;2023-08-21T06:18:45;58082.45;;;-140.43;46.63
30714;BME280;17465;47.934;33.430;2023-08-21T06:21:18;58164.01;;;-140.43;44.01
30714;BME280;17465;47.934;33.430;2023-08-21T06:23:49;58164.01;;;-140.43;44.01
30714;BME280;17465;47.934;33.430;2023-08-21T06:26:19;58223.33;;;-140.43;42.42
30714;BME280;17465;47.934;33.430;2023-08-21T06:28:55;58236.04;;;-140.43;41.50
30714;BME280;17465;47.934;33.430;2023-08-21T06:31:26;58295.37;;;-140.43;40.81
30714;BME280;17465;47.934;33.430;2023-08-21T06:33:57;58295.37;;;-140.43;40.81
30714;BME280;17465;47.934;33.430;2023-08-21T06:36:27;58268.89;;;-140.43;41.11
30714;BME280;17465;47.934;33.430;2023-08-21T06:38:59;58328.21;;;-140.43;39.57
30714;BME280;17465;47.934;33.430;2023-08-21T06:41:30;58347.28;;;-140.43;39.02
30714;BME280;17465;47.934;33.430;2023-08-21T06:44:01;58420.37;;;-140.43;38.53
30714;BME280;17465;47.934;33.430;2023-08-21T06:46:32;58356.81;;;-140.43;37.88
30714;BME280;17465;47.934;33.430;2023-08-21T06:49:02;58398.13;;;-140.43;37.78
30714;BME280;17465;47.934;33.430;2023-08-21T06:51:32;58418.26;;;-140.43;37.72
30714;BME280;17465;47.934;33.430;2023-08-21T06:54:07;58454.28;;;-140.43;37.29
30714;BME280;17465;47.934;33.430;2023-08-21T06:56:37;58454.28;;;-140.43;37.29
30714;BME280;17465;47.934;33.430;2023-08-21T06:59:11;58475.46;;;-140.43;37.95
30714;BME280;17465;47.934;33.430;2023-08-21T07:01:39;58475.46;;;-140.43;37.95
30714;BME280;17465;47.934;33.430;2023-08-21T07:04:10;58488.18;;;-140.43;36.34
30714;BME280;17465;47.934;33.430;2023-08-21T07:06:41;58516.78;;;-140.43;35.55
30714;BME280;17465;47.934;33.430;2023-08-21T07:09:12;58516.78;;;-140.43;35.55
30714;BME280;17465;47.934;33.430;2023-08-21T07:11:42;58518.90;;;-140.43;36.93
30714;BME280;17465;47.934;33.430;2023-08-21T07:14:13;58497.71;;;-140.43;36.38
30714;BME280;17465;47.934;33.430;2023-08-21T07:16:46;58527.37;;;-140.43;34.82
30714;BME280;17465;47.934;33.430;2023-08-21T07:19:17;58581.41;;;-140.43;33.17
30714;BME280;17465;47.934;33.430;2023-08-21T07:21:52;58581.41;;;-140.43;33.17
30714;BME280;17465;47.934;33.430;2023-08-21T07:24:21;58583.53;;;-140.43;32.74
30714;BME280;17465;47.934;33.430;2023-08-21T07:27:02;58614.25;;;-140.43;33.09
30714;BME280;17465;47.934;33.430;2023-08-21T07:29:27;58579.29;;;-140.43;33.21
30714;BME280;17465;47.934;33.430;2023-08-21T07:32:08;58594.12;;;-140.43;32.90
30714;BME280;17465;47.934;33.430;2023-08-21T07:34:38;58594.12;;;-140.43;32.90
30714;BME280;17465;47.934;33.430;2023-08-21T07:37:13;58539.03;;;-140.43;33.84
30714;BME280;17465;47.934;33.430;2023-08-21T07:39:46;58539.03;;;-140.43;33.84
30714;BME280;17465;47.934;33.430;2023-08-21T07:42:16;58528.43;;;-140.43;33.35
30714;BME280;17465;47.934;33.430;2023-08-21T07:44:50;58506.19;;;-140.43;32.42
30714;BME280;17465;47.934;33.430;2023-08-21T07:47:27;58524.20;;;-140.43;32.97
30714;BME280;17465;47.934;33.430;2023-08-21T07:49:57;58575.05;;;-140.43;33.65
30714;BME280;17465;47.934;33.430;2023-08-21T07:52:28;58687.36;;;-140.43;31.32
30714;BME280;17465;47.934;33.430;2023-08-21T07:54:58;58687.36;;;-140.43;31.32
30714;BME280;17465;47.934;33.430;2023-08-21T07:57:28;58747.75;;;-140.43;30.38
30714;BME280;17465;47.934;33.430;2023-08-21T07:59:59;58715.96;;;-140.43;29.42
30714;BME280;17465;47.934;33.430;2023-08-21T08:02:30;58715.96;;;-140.43;29.42
30714;BME280;17465;47.934;33.430;2023-08-21T08:05:00;58774.23;;;-140.43;28.82
30714;BME280;17465;47.934;33.430;2023-08-21T08:07:37;58774.23;;;-140.43;28.82
30714;BME280;17465;47.934;33.430;2023-08-21T08:10:16;58784.83;;;-140.43;30.07
30714;BME280;17465;47.934;33.430;2023-08-21T08:12:46;58736.09;;;-140.43;29.37
30714;BME280;17465;47.934;33.430;2023-08-21T08:15:20;58797.54;;;-140.43;29.66
30714;BME280;17465;47.934;33.430;2023-08-21T08:18:15;58911.97;;;-140.43;29.57
30714;BME280;17465;47.934;33.430;2023-08-21T08:20:33;58911.97;;;-140.43;29.57
30714;BME280;17465;47.934;33.430;2023-08-21T08:23:05;58889.72;;;-140.43;30.33
30714;BME280;17465;47.934;33.430;2023-08-21T08:25:35;58941.64;;;-140.43;28.87
30714;BME280;17465;47.934;33.430;2023-08-21T08:28:06;58916.21;;;-140.43;28.79
30714;BME280;17465;47.934;33.430;2023-08-21T08:30:42;58934.22;;;-140.43;28.65
30714;BME280;17465;47.934;33.430;2023-08-21T08:33:08;58934.22;;;-140.43;28.65
30714;BME280;17465;47.934;33.430;2023-08-21T08:35:39;58903.50;;;-140.43;28.38
30714;BME280;17465;47.934;33.430;2023-08-21T08:38:09;58874.89;;;-140.43;28.64
30714;BME280;17465;47.934;33.430;2023-08-21T08:40:47;58874.89;;;-140.43;28.64
30714;BME280;17465;47.934;33.430;2023-08-21T08:43:15;58963.89;;;-140.43;28.82
30714;BME280;17465;47.934;33.430;2023-08-21T08:45:47;58921.51;;;-140.43;28.57
30714;BME280;17465;47.934;33.430;2023-08-21T08:48:20;58988.26;;;-140.43;28.86
30714;BME280;17465;47.934;33.430;2023-08-21T08:50:51;58988.26;;;-140.43;28.86
30714;BME280;17465;47.934;33.430;2023-08-21T08:53:22;59010.51;;;-140.43;29.03
30714;BME280;17465;47.934;33.430;2023-08-21T08:55:55;58918.33;;;-140.43;28.09
30714;BME280;17465;47.934;33.430;2023-08-21T08:58:29;58918.33;;;-140.43;28.09
30714;BME280;17465;47.934;33.430;2023-08-21T09:00:59;58979.79;;;-140.43;29.33
30714;BME280;17465;47.934;33.430;2023-08-21T09:03:30;59028.52;;;-140.43;28.64
30714;BME280;17465;47.934;33.430;2023-08-21T09:06:05;59034.88;;;-140.43;28.92
30714;BME280;17465;47.934;33.430;2023-08-21T09:08:42;59035.94;;;-140.43;27.35
30714;BME280;17465;47.934;33.430;2023-08-21T09:11:15;59035.94;;;-140.43;27.35
30714;BME280;17465;47.934;33.430;2023-08-21T09:13:54;59033.82;;;-140.43;28.29
30714;BME280;17465;47.934;33.430;2023-08-21T09:16:31;59037.00;;;-140.43;27.89
30714;BME280;17465;47.934;33.430;2023-08-21T09:19:01;59037.00;;;-140.43;27.89
30714;BME280;17465;47.934;33.430;2023-08-21T09:22:17;59016.87;;;-140.43;27.36
30714;BME280;17465;47.934;33.430;2023-08-21T09:24:39;59078.32;;;-140.43;28.07
30714;BME280;17465;47.934;33.430;2023-08-21T09:27:15;59078.32;;;-140.43;28.07
30714;BME280;17465;47.934;33.430;2023-08-21T09:29:57;59162.04;;;-140.43;27.33
30714;BME280;17465;47.934;33.430;2023-08-21T09:32:28;59099.52;;;-140.43;27.36
30714;BME280;17465;47.934;33.430;2023-08-21T09:34:58;59106.93;;;-140.43;26.79
30714;BME280;17465;47.934;33.430;2023-08-21T09:37:34;59130.25;;;-140.43;26.62
30714;BME280;17465;47.934;33.430;2023-08-21T09:40:08;59130.25;;;-140.43;26.62
30714;BME280;17465;47.934;33.430;2023-08-21T09:42:40;59099.52;;;-140.43;26.47
30714;BME280;17465;47.934;33.430;2023-08-21T09:45:20;59120.71;;;-140.43;26.60
30714;BME280;17465;47.934;33.430;2023-08-21T09:48:02;59073.03;;;-140.43;27.10
30714;BME280;17465;47.934;33.430;2023-08-21T09:50:34;59187.46;;;-140.43;26.92
30714;BME280;17465;47.934;33.430;2023-08-21T09:53:08;59103.76;;;-140.43;26.74
30714;BME280;17465;47.934;33.430;2023-08-21T09:58:38;59178.99;;;-140.43;27.72
30714;BME280;17465;47.934;33.430;2023-08-21T10:01:17;59062.43;;;-140.43;27.32
30714;BME280;17465;47.934;33.430;2023-08-21T10:03:51;59069.85;;;-140.43;27.07
30714;BME280;17465;47.934;33.430;2023-08-21T10:06:23;59130.25;;;-140.43;27.38
30714;BME280;17465;47.934;33.430;2023-08-21T10:08:57;59258.46;;;-140.43;26.64
30714;BME280;17465;47.934;33.430;2023-08-21T10:11:28;59159.91;;;-140.43;26.42
30714;BME280;17465;47.934;33.430;2023-08-21T10:13:58;59086.80;;;-140.43;27.54
30714;BME280;17465;47.934;33.430;2023-08-21T10:16:32;59176.87;;;-140.43;27.45
30714;BME280;17465;47.934;33.430;2023-08-21T10:19:13;59145.08;;;-140.43;26.67
30714;BME280;17465;47.934;33.430;2023-08-21T10:21:42;59087.86;;;-140.43;26.55
30714;BME280;17465;47.934;33.430;2023-08-21T10:24:31;59130.25;;;-140.43;26.87
30714;BME280;17465;47.934;33.430;2023-08-21T10:27:00;59160.98;;;-140.43;26.90
30714;BME280;17465;47.934;33.430;2023-08-21T10:29:38;59151.44;;;-140.43;26.17
30714;BME280;17465;47.934;33.430;2023-08-21T10:32:18;59151.44;;;-140.43;26.17
30714;BME280;17465;47.934;33.430;2023-08-21T10:35:08;59149.32;;;-140.43;27.46
30714;BME280;17465;47.934;33.430;2023-08-21T10:41:06;59059.25;;;-140.43;26.51
30714;BME280;17465;47.934;33.430;2023-08-21T10:43:45;59159.91;;;-140.43;26.35
30714;BME280;17465;47.934;33.430;2023-08-21T10:46:16;59261.64;;;-140.43;25.99
30714;BME280;17465;47.934;33.430;2023-08-21T10:48:47;59045.48;;;-140.43;28.02
30714;BME280;17465;47.934;33.430;2023-08-21T10:51:18;59045.48;;;-140.43;28.02
30714;BME280;17465;47.934;33.430;2023-08-21T10:53:55;58982.96;;;-140.43;27.75
30714;BME280;17465;47.934;33.430;2023-08-21T10:56:26;58795.42;;;-140.43;29.94
30714;BME280;17465;47.934;33.430;2023-08-21T10:58:56;58952.23;;;-140.43;29.42
30714;BME280;17465;47.934;33.430;2023-08-21T11:01:45;59060.31;;;-140.43;28.95
30714;BME280;17465;47.934;33.430;2023-08-21T11:04:16;59060.31;;;-140.43;28.95
30714;BME280;17465;47.934;33.430;2023-08-21T11:06:50;59069.85;;;-140.43;27.50
30714;BME280;17465;47.934;33.430;2023-08-21T11:09:21;59219.25;;;-140.43;26.82
30714;BME280;17465;47.934;33.430;2023-08-21T11:11:52;59173.69;;;-140.43;26.58
30714;BME280;17465;47.934;33.430;2023-08-21T11:14:26;59239.39;;;-140.43;25.35
30714;BME280;17465;47.934;33.430;2023-08-21T11:17:00;59177.93;;;-140.43;26.53
30714;BME280;17465;47.934;33.430;2023-08-21T11:19:37;59195.94;;;-140.43;26.30
30714;BME280;17465;47.934;33.430;2023-08-21T11:22:07;58977.66;;;-140.43;28.85
30714;BME280;17465;47.934;33.430;2023-08-21T11:24:43;58899.26;;;-140.43;29.01
30714;BME280;17465;47.934;33.430;2023-08-21T11:27:16;58798.60;;;-140.43;29.47
30714;BME280;17465;47.934;33.430;2023-08-21T11:29:49;58701.13;;;-140.43;29.77
30714;BME280;17465;47.934;33.430;2023-08-21T11:32:21;58729.73;;;-140.43;29.52
30714;BME280;17465;47.934;33.430;2023-08-21T11:34:57;58747.75;;;-140.43;29.94
30714;BME280;17465;47.934;33.430;2023-08-21T11:37:31;58747.75;;;-140.43;29.94
30714;BME280;17465;47.934;33.430;2023-08-21T11:40:14;58621.67;;;-140.43;31.01
30714;BME280;17465;47.934;33.430;2023-08-21T11:42:42;58599.42;;;-140.43;32.64
30714;BME280;17465;47.934;33.430;2023-08-21T11:45:12;58500.89;;;-140.43;31.98
30714;BME280;17465;47.934;33.430;2023-08-21T11:47:43;58536.91;;;-140.43;31.82
30714;BME280;17465;47.934;33.430;2023-08-21T11:50:15;58452.16;;;-140.43;33.20
30714;BME280;17465;47.934;33.430;2023-08-21T11:52:53;58441.56;;;-140.43;33.63
30714;BME280;17465;47.934;33.430;2023-08-21T11:55:24;58411.90;;;-140.43;33.96
30714;BME280;17465;47.934;33.430;2023-08-21T11:57:56;58487.12;;;-140.43;34.62
30714;BME280;17465;47.934;33.430;2023-08-21T12:00:30;58492.42;;;-140.43;32.77
30714;BME280;17465;47.934;33.430;2023-08-21T12:03:17;58492.42;;;-140.43;32.77
30714;BME280;17465;47.934;33.430;2023-08-21T12:05:55;58507.25;;;-140.43;32.17
30714;BME280;17465;47.934;33.430;2023-08-21T12:08:26;58717.02;;;-140.43;30.60
30714;BME280;17465;47.934;33.430;2023-08-21T12:10:57;58717.02;;;-140.43;30.60
30714;BME280;17465;47.934;33.430;2023-08-21T12:13:30;58731.85;;;-140.43;29.61
30714;BME280;17465;47.934;33.430;2023-08-21T12:16:03;58855.82;;;-140.43;28.66
30714;BME280;17465;47.934;33.430;2023-08-21T12:18:34;58927.86;;;-140.43;28.78
30714;BME280;17465;47.934;33.430;2023-08-21T12:21:05;58958.59;;;-140.43;28.80
30714;BME280;17465;47.934;33.430;2023-08-21T12:23:35;59031.70;;;-140.43;27.79
30714;BME280;17465;47.934;33.430;2023-08-21T12:26:05;59035.94;;;-140.43;28.53
30714;BME280;17465;47.934;33.430;2023-08-21T12:28:37;59035.94;;;-140.43;28.53
30714;BME280;17465;47.934;33.430;2023-08-21T12:31:08;59060.31;;;-140.43;28.01
30714;BME280;17465;47.934;33.430;2023-08-21T12:33:38;59046.54;;;-140.43;27.94
30714;BME280;17465;47.934;33.430;2023-08-21T12:36:11;58914.09;;;-140.43;28.80
30714;BME280;17465;47.934;33.430;2023-08-21T12:38:41;58863.23;;;-140.43;29.80
30714;BME280;17465;47.934;33.430;2023-08-21T12:41:12;58863.23;;;-140.43;29.80
30714;BME280;17465;47.934;33.430;2023-08-21T12:43:46;58885.48;;;-140.43;29.43
30714;BME280;17465;47.934;33.430;2023-08-21T12:46:20;58958.59;;;-140.43;28.41
30714;BME280;17465;47.934;33.430;2023-08-21T12:48:50;59038.06;;;-140.43;28.15
30714;BME280;17465;47.934;33.430;2023-08-21T12:51:21;59111.17;;;-140.43;28.04
30714;BME280;17465;47.934;33.430;2023-08-21T12:53:52;59050.77;;;-140.43;28.23
30714;BME280;17465;47.934;33.430;2023-08-21T12:56:30;59050.77;;;-140.43;28.23
30714;BME280;17465;47.934;33.430;2023-08-21T12:59:00;58865.35;;;-140.43;29.26
30714;BME280;17465;47.934;33.430;2023-08-21T13:01:35;59005.21;;;-140.43;27.82
30714;BME280;17465;47.934;33.430;2023-08-21T13:04:05;59005.21;;;-140.43;27.82
30714;BME280;17465;47.934;33.430;2023-08-21T13:06:44;58970.25;;;-140.43;27.90
30714;BME280;17465;47.934;33.430;2023-08-21T13:09:10;59148.26;;;-140.43;27.50